sensor_id;sensor_type;location;lat;lon;timestamp;P1;durP1;ratioP1;P2;durP2;ratioP2
24084;SDS011;12268;52.110;5.548;2022-08-19T00:01:27;10.60;;;7.53;;
24084;SDS011;12268;52.110;5.548;2022-08-19T00:03:54;11.07;;;8.20;;
24084;SDS011;12268;52.110;5.548;2022-08-19T00:06:20;10.80;;;7.85;;
24084;SDS011;12268;52.110;5.548;2022-08-19T00:08:46;10.00;;;7.40;;
24084;SDS011;12268;52.110;5.548;2022-08-19T00:11:11;11.45;;;8.77;;
24084;SDS011;12268;52.110;5.548;2022-08-19T00:13:37;10.90;;;8.77;;
24084;SDS011;12268;52.110;5.548;2022-08-19T00:16:03;14.02;;;8.60;;
24084;SDS011;12268;52.110;5.548;2022-08-19T00:18:30;14.48;;;10.23;;
24084;SDS011;12268;52.110;5.548;2022-08-19T00:20:56;8.82;;;6.95;;
24084;SDS011;12268;52.110;5.548;2022-08-19T00:23:22;7.63;;;5.88;;
24084;SDS011;12268;52.110;5.548;2022-08-19T00:25:48;9.63;;;4.72;;
24084;SDS011;12268;52.110;5.548;2022-08-19T00:28:13;15.18;;;4.40;;
24084;SDS011;12268;52.110;5.548;2022-08-19T00:30:39;7.45;;;5.32;;
24084;SDS011;12268;52.110;5.548;2022-08-19T00:33:05;9.45;;;6.35;;
24084;SDS011;12268;52.110;5.548;2022-08-19T00:35:33;8.50;;;6.28;;
24084;SDS011;12268;52.110;5.548;2022-08-19T00:37:58;10.27;;;6.28;;
24084;SDS011;12268;52.110;5.548;2022-08-19T00:40:24;9.52;;;5.32;;
24084;SDS011;12268;52.110;5.548;2022-08-19T00:42:50;8.05;;;5.75;;
24084;SDS011;12268;52.110;5.548;2022-08-19T00:45:20;8.48;;;5.70;;
24084;SDS011;12268;52.110;5.548;2022-08-19T00:47:47;7.20;;;5.53;;
24084;SDS011;12268;52.110;5.548;2022-08-19T00:50:14;10.45;;;6.47;;
24084;SDS011;12268;52.110;5.548;2022-08-19T00:52:45;8.45;;;6.10;;
24084;SDS011;12268;52.110;5.548;2022-08-19T00:55:18;8.90;;;6.43;;
24084;SDS011;12268;52.110;5.548;2022-08-19T00:57:48;7.60;;;6.30;;
24084;SDS011;12268;52.110;5.548;2022-08-19T01:00:20;9.80;;;6.13;;
24084;SDS011;12268;52.110;5.548;2022-08-19T01:02:46;7.45;;;5.07;;
24084;SDS011;12268;52.110;5.548;2022-08-19T01:05:14;7.15;;;5.43;;
24084;SDS011;12268;52.110;5.548;2022-08-19T01:07:43;8.65;;;5.07;;
24084;SDS011;12268;52.110;5.548;2022-08-19T01:10:11;11.00;;;6.25;;
24084;SDS011;12268;52.110;5.548;2022-08-19T01:12:39;8.65;;;6.65;;
24084;SDS011;12268;52.110;5.548;2022-08-19T01:15:06;7.75;;;5.90;;
24084;SDS011;12268;52.110;5.548;2022-08-19T01:17:36;7.20;;;6.22;;
24084;SDS011;12268;52.110;5.548;2022-08-19T01:20:05;7.18;;;5.80;;
24084;SDS011;12268;52.110;5.548;2022-08-19T01:22:46;14.23;;;5.85;;
24084;SDS011;12268;52.110;5.548;2022-08-19T01:25:21;7.88;;;4.55;;
24084;SDS011;12268;52.110;5.548;2022-08-19T01:27:51;7.80;;;5.30;;
24084;SDS011;12268;52.110;5.548;2022-08-19T01:30:19;4.50;;;3.65;;
24084;SDS011;12268;52.110;5.548;2022-08-19T01:32:47;6.75;;;4.20;;
24084;SDS011;12268;52.110;5.548;2022-08-19T01:35:13;6.57;;;4.53;;
24084;SDS011;12268;52.110;5.548;2022-08-19T01:37:45;8.38;;;5.13;;
24084;SDS011;12268;52.110;5.548;2022-08-19T01:40:17;8.85;;;5.50;;
24084;SDS011;12268;52.110;5.548;2022-08-19T01:42:45;9.77;;;5.85;;
24084;SDS011;12268;52.110;5.548;2022-08-19T01:45:15;7.50;;;5.40;;
24084;SDS011;12268;52.110;5.548;2022-08-19T01:47:42;7.35;;;6.07;;
24084;SDS011;12268;52.110;5.548;2022-08-19T01:50:08;9.15;;;5.63;;
24084;SDS011;12268;52.110;5.548;2022-08-19T01:52:36;7.85;;;4.97;;
24084;SDS011;12268;52.110;5.548;2022-08-19T01:55:02;7.43;;;5.82;;
24084;SDS011;12268;52.110;5.548;2022-08-19T02:02:40;8.23;;;6.20;;
24084;SDS011;12268;52.110;5.548;2022-08-19T02:05:07;19.20;;;6.85;;
24084;SDS011;12268;52.110;5.548;2022-08-19T02:07:33;13.25;;;8.02;;
24084;SDS011;12268;52.110;5.548;2022-08-19T02:10:07;11.52;;;6.43;;
24084;SDS011;12268;52.110;5.548;2022-08-19T02:12:35;9.52;;;7.07;;
24084;SDS011;12268;52.110;5.548;2022-08-19T02:15:02;11.70;;;6.85;;
24084;SDS011;12268;52.110;5.548;2022-08-19T02:17:28;8.48;;;6.03;;
24084;SDS011;12268;52.110;5.548;2022-08-19T02:19:54;10.55;;;5.75;;
24084;SDS011;12268;52.110;5.548;2022-08-19T02:22:21;10.52;;;5.63;;
24084;SDS011;12268;52.110;5.548;2022-08-19T02:24:47;7.57;;;5.80;;
24084;SDS011;12268;52.110;5.548;2022-08-19T02:27:14;11.07;;;6.68;;
24084;SDS011;12268;52.110;5.548;2022-08-19T02:29:40;9.73;;;6.63;;
24084;SDS011;12268;52.110;5.548;2022-08-19T02:32:06;10.10;;;7.22;;
24084;SDS011;12268;52.110;5.548;2022-08-19T02:34:32;12.23;;;5.97;;
24084;SDS011;12268;52.110;5.548;2022-08-19T02:36:58;10.23;;;6.30;;
24084;SDS011;12268;52.110;5.548;2022-08-19T02:39:24;8.60;;;5.97;;
24084;SDS011;12268;52.110;5.548;2022-08-19T02:41:49;9.23;;;6.47;;
24084;SDS011;12268;52.110;5.548;2022-08-19T02:44:15;10.23;;;6.72;;
24084;SDS011;12268;52.110;5.548;2022-08-19T02:46:41;11.02;;;8.15;;
24084;SDS011;12268;52.110;5.548;2022-08-19T02:49:06;12.15;;;8.07;;
24084;SDS011;12268;52.110;5.548;2022-08-19T02:51:34;14.90;;;8.43;;
24084;SDS011;12268;52.110;5.548;2022-08-19T02:54:01;17.63;;;9.07;;
24084;SDS011;12268;52.110;5.548;2022-08-19T02:56:28;13.75;;;8.90;;
24084;SDS011;12268;52.110;5.548;2022-08-19T02:58:55;16.00;;;8.20;;
24084;SDS011;12268;52.110;5.548;2022-08-19T03:01:22;15.80;;;8.93;;
24084;SDS011;12268;52.110;5.548;2022-08-19T03:03:50;16.77;;;9.13;;
24084;SDS011;12268;52.110;5.548;2022-08-19T03:06:16;29.40;;;8.93;;
24084;SDS011;12268;52.110;5.548;2022-08-19T03:08:43;16.17;;;8.77;;
24084;SDS011;12268;52.110;5.548;2022-08-19T03:11:17;16.40;;;7.90;;
24084;SDS011;12268;52.110;5.548;2022-08-19T03:13:45;14.00;;;7.18;;
24084;SDS011;12268;52.110;5.548;2022-08-19T03:16:14;13.00;;;7.22;;
24084;SDS011;12268;52.110;5.548;2022-08-19T03:18:40;11.30;;;7.25;;
24084;SDS011;12268;52.110;5.548;2022-08-19T03:21:06;13.10;;;7.05;;
24084;SDS011;12268;52.110;5.548;2022-08-19T03:23:32;10.10;;;7.45;;
24084;SDS011;12268;52.110;5.548;2022-08-19T03:25:58;16.33;;;7.65;;
24084;SDS011;12268;52.110;5.548;2022-08-19T03:28:24;42.97;;;6.68;;
24084;SDS011;12268;52.110;5.548;2022-08-19T03:31:23;44.95;;;7.72;;
24084;SDS011;12268;52.110;5.548;2022-08-19T03:33:43;21.05;;;7.45;;
24084;SDS011;12268;52.110;5.548;2022-08-19T03:36:11;9.27;;;7.60;;
24084;SDS011;12268;52.110;5.548;2022-08-19T03:38:40;11.82;;;7.80;;
24084;SDS011;12268;52.110;5.548;2022-08-19T03:41:12;10.88;;;6.80;;
24084;SDS011;12268;52.110;5.548;2022-08-19T03:43:43;7.88;;;6.05;;
24084;SDS011;12268;52.110;5.548;2022-08-19T03:46:12;15.18;;;8.20;;
24084;SDS011;12268;52.110;5.548;2022-08-19T03:48:40;14.50;;;7.57;;
24084;SDS011;12268;52.110;5.548;2022-08-19T03:51:07;14.20;;;8.02;;
24084;SDS011;12268;52.110;5.548;2022-08-19T03:53:39;10.80;;;7.53;;
24084;SDS011;12268;52.110;5.548;2022-08-19T03:56:06;13.63;;;8.00;;
24084;SDS011;12268;52.110;5.548;2022-08-19T03:58:34;14.30;;;8.25;;
24084;SDS011;12268;52.110;5.548;2022-08-19T04:01:00;17.27;;;8.38;;
24084;SDS011;12268;52.110;5.548;2022-08-19T04:03:26;13.80;;;8.00;;
24084;SDS011;12268;52.110;5.548;2022-08-19T04:05:52;17.65;;;7.80;;
24084;SDS011;12268;52.110;5.548;2022-08-19T04:08:19;15.57;;;8.32;;
24084;SDS011;12268;52.110;5.548;2022-08-19T04:10:47;17.58;;;8.18;;
24084;SDS011;12268;52.110;5.548;2022-08-19T04:13:14;22.05;;;9.45;;
24084;SDS011;12268;52.110;5.548;2022-08-19T04:15:42;12.98;;;8.93;;
24084;SDS011;12268;52.110;5.548;2022-08-19T04:18:09;12.10;;;8.13;;
24084;SDS011;12268;52.110;5.548;2022-08-19T04:20:40;16.33;;;8.77;;
24084;SDS011;12268;52.110;5.548;2022-08-19T04:25:39;19.88;;;8.43;;
24084;SDS011;12268;52.110;5.548;2022-08-19T04:28:06;15.82;;;8.93;;
24084;SDS011;12268;52.110;5.548;2022-08-19T04:30:38;16.52;;;8.15;;
24084;SDS011;12268;52.110;5.548;2022-08-19T04:33:06;19.00;;;7.93;;
24084;SDS011;12268;52.110;5.548;2022-08-19T04:35:50;14.88;;;8.43;;
24084;SDS011;12268;52.110;5.548;2022-08-19T04:38:18;14.43;;;8.70;;
24084;SDS011;12268;52.110;5.548;2022-08-19T04:40:48;12.82;;;9.27;;
24084;SDS011;12268;52.110;5.548;2022-08-19T04:43:35;21.92;;;9.57;;
24084;SDS011;12268;52.110;5.548;2022-08-19T04:46:05;19.27;;;8.75;;
24084;SDS011;12268;52.110;5.548;2022-08-19T04:48:36;15.02;;;9.10;;
24084;SDS011;12268;52.110;5.548;2022-08-19T04:51:06;12.20;;;8.75;;
24084;SDS011;12268;52.110;5.548;2022-08-19T04:53:33;18.80;;;9.18;;
24084;SDS011;12268;52.110;5.548;2022-08-19T04:56:03;18.67;;;8.75;;
24084;SDS011;12268;52.110;5.548;2022-08-19T04:58:32;13.75;;;7.78;;
24084;SDS011;12268;52.110;5.548;2022-08-19T05:00:59;16.73;;;7.35;;
24084;SDS011;12268;52.110;5.548;2022-08-19T05:03:24;37.97;;;7.50;;
24084;SDS011;12268;52.110;5.548;2022-08-19T05:05:50;34.15;;;7.07;;
24084;SDS011;12268;52.110;5.548;2022-08-19T05:08:18;10.43;;;7.72;;
24084;SDS011;12268;52.110;5.548;2022-08-19T05:10:48;11.52;;;8.15;;
24084;SDS011;12268;52.110;5.548;2022-08-19T05:13:16;11.32;;;8.20;;
24084;SDS011;12268;52.110;5.548;2022-08-19T05:15:43;12.25;;;9.00;;
24084;SDS011;12268;52.110;5.548;2022-08-19T05:18:09;12.40;;;9.13;;
24084;SDS011;12268;52.110;5.548;2022-08-19T05:20:54;12.65;;;9.30;;
24084;SDS011;12268;52.110;5.548;2022-08-19T05:23:38;13.93;;;9.40;;
24084;SDS011;12268;52.110;5.548;2022-08-19T05:26:03;16.23;;;10.68;;
24084;SDS011;12268;52.110;5.548;2022-08-19T05:28:29;18.67;;;12.43;;
24084;SDS011;12268;52.110;5.548;2022-08-19T05:30:55;20.30;;;12.50;;
24084;SDS011;12268;52.110;5.548;2022-08-19T05:33:21;18.02;;;11.68;;
24084;SDS011;12268;52.110;5.548;2022-08-19T05:35:47;18.63;;;12.85;;
24084;SDS011;12268;52.110;5.548;2022-08-19T05:38:14;18.92;;;12.05;;
24084;SDS011;12268;52.110;5.548;2022-08-19T05:40:41;16.52;;;11.50;;
24084;SDS011;12268;52.110;5.548;2022-08-19T05:43:11;21.23;;;13.18;;
24084;SDS011;12268;52.110;5.548;2022-08-19T05:45:40;19.25;;;12.73;;
24084;SDS011;12268;52.110;5.548;2022-08-19T05:48:07;19.20;;;13.00;;
24084;SDS011;12268;52.110;5.548;2022-08-19T05:50:36;25.20;;;13.98;;
24084;SDS011;12268;52.110;5.548;2022-08-19T05:53:05;21.95;;;13.57;;
24084;SDS011;12268;52.110;5.548;2022-08-19T05:55:32;20.98;;;13.80;;
24084;SDS011;12268;52.110;5.548;2022-08-19T05:57:57;22.73;;;14.05;;
24084;SDS011;12268;52.110;5.548;2022-08-19T06:00:23;22.75;;;14.00;;
24084;SDS011;12268;52.110;5.548;2022-08-19T06:02:49;28.35;;;14.77;;
24084;SDS011;12268;52.110;5.548;2022-08-19T06:05:15;29.42;;;15.90;;
24084;SDS011;12268;52.110;5.548;2022-08-19T06:07:41;30.27;;;15.50;;
24084;SDS011;12268;52.110;5.548;2022-08-19T06:10:08;39.20;;;17.30;;
24084;SDS011;12268;52.110;5.548;2022-08-19T06:12:36;45.50;;;19.23;;
24084;SDS011;12268;52.110;5.548;2022-08-19T06:15:09;46.75;;;21.08;;
24084;SDS011;12268;52.110;5.548;2022-08-19T06:17:36;52.17;;;22.20;;
24084;SDS011;12268;52.110;5.548;2022-08-19T06:20:06;52.83;;;23.05;;
24084;SDS011;12268;52.110;5.548;2022-08-19T06:22:38;59.80;;;23.63;;
24084;SDS011;12268;52.110;5.548;2022-08-19T06:25:05;67.15;;;26.00;;
24084;SDS011;12268;52.110;5.548;2022-08-19T06:27:31;64.97;;;25.30;;
24084;SDS011;12268;52.110;5.548;2022-08-19T06:29:58;78.57;;;27.30;;
24084;SDS011;12268;52.110;5.548;2022-08-19T06:32:23;75.03;;;28.33;;
24084;SDS011;12268;52.110;5.548;2022-08-19T06:34:49;78.13;;;28.98;;
24084;SDS011;12268;52.110;5.548;2022-08-19T06:37:15;100.57;;;32.55;;
24084;SDS011;12268;52.110;5.548;2022-08-19T06:39:42;103.55;;;33.28;;
24084;SDS011;12268;52.110;5.548;2022-08-19T06:42:09;99.53;;;33.70;;
24084;SDS011;12268;52.110;5.548;2022-08-19T06:44:41;105.25;;;36.15;;
24084;SDS011;12268;52.110;5.548;2022-08-19T06:47:08;106.20;;;32.15;;
24084;SDS011;12268;52.110;5.548;2022-08-19T06:49:37;110.90;;;35.67;;
24084;SDS011;12268;52.110;5.548;2022-08-19T06:52:03;108.60;;;36.38;;
24084;SDS011;12268;52.110;5.548;2022-08-19T06:54:29;98.75;;;36.10;;
24084;SDS011;12268;52.110;5.548;2022-08-19T06:56:55;110.95;;;38.15;;
24084;SDS011;12268;52.110;5.548;2022-08-19T06:59:23;101.03;;;37.03;;
24084;SDS011;12268;52.110;5.548;2022-08-19T07:01:53;96.88;;;37.20;;
24084;SDS011;12268;52.110;5.548;2022-08-19T07:04:21;111.38;;;40.60;;
24084;SDS011;12268;52.110;5.548;2022-08-19T07:06:49;109.97;;;39.72;;
24084;SDS011;12268;52.110;5.548;2022-08-19T07:09:20;102.68;;;38.42;;
24084;SDS011;12268;52.110;5.548;2022-08-19T07:11:47;117.70;;;40.03;;
24084;SDS011;12268;52.110;5.548;2022-08-19T07:14:14;123.75;;;40.70;;
24084;SDS011;12268;52.110;5.548;2022-08-19T07:16:43;116.93;;;37.85;;
24084;SDS011;12268;52.110;5.548;2022-08-19T07:19:10;106.90;;;38.30;;
24084;SDS011;12268;52.110;5.548;2022-08-19T07:21:36;103.13;;;37.13;;
24084;SDS011;12268;52.110;5.548;2022-08-19T07:24:02;107.47;;;36.33;;
24084;SDS011;12268;52.110;5.548;2022-08-19T07:26:29;95.22;;;34.53;;
24084;SDS011;12268;52.110;5.548;2022-08-19T07:28:57;99.93;;;36.83;;
24084;SDS011;12268;52.110;5.548;2022-08-19T07:31:24;99.22;;;35.42;;
24084;SDS011;12268;52.110;5.548;2022-08-19T07:33:52;92.45;;;34.58;;
24084;SDS011;12268;52.110;5.548;2022-08-19T07:36:21;86.80;;;33.63;;
24084;SDS011;12268;52.110;5.548;2022-08-19T07:38:48;91.00;;;34.05;;
24084;SDS011;12268;52.110;5.548;2022-08-19T07:41:20;94.78;;;36.17;;
24084;SDS011;12268;52.110;5.548;2022-08-19T07:43:48;89.38;;;38.00;;
24084;SDS011;12268;52.110;5.548;2022-08-19T07:46:14;89.05;;;36.65;;
24084;SDS011;12268;52.110;5.548;2022-08-19T07:48:41;93.70;;;37.28;;
24084;SDS011;12268;52.110;5.548;2022-08-19T07:51:10;97.05;;;37.42;;
24084;SDS011;12268;52.110;5.548;2022-08-19T07:53:39;84.22;;;36.55;;
24084;SDS011;12268;52.110;5.548;2022-08-19T07:56:05;82.95;;;36.90;;
24084;SDS011;12268;52.110;5.548;2022-08-19T07:58:33;73.95;;;35.15;;
24084;SDS011;12268;52.110;5.548;2022-08-19T08:01:01;70.18;;;34.42;;
24084;SDS011;12268;52.110;5.548;2022-08-19T08:03:27;70.47;;;33.25;;
24084;SDS011;12268;52.110;5.548;2022-08-19T08:06:13;72.55;;;33.08;;
24084;SDS011;12268;52.110;5.548;2022-08-19T08:08:57;70.80;;;33.45;;
24084;SDS011;12268;52.110;5.548;2022-08-19T08:11:35;66.43;;;32.28;;
24084;SDS011;12268;52.110;5.548;2022-08-19T08:14:06;66.00;;;33.00;;
24084;SDS011;12268;52.110;5.548;2022-08-19T08:16:38;62.50;;;30.23;;
24084;SDS011;12268;52.110;5.548;2022-08-19T08:19:04;64.03;;;31.48;;
24084;SDS011;12268;52.110;5.548;2022-08-19T08:21:31;57.97;;;31.98;;
24084;SDS011;12268;52.110;5.548;2022-08-19T08:23:57;55.17;;;30.65;;
24084;SDS011;12268;52.110;5.548;2022-08-19T08:26:23;55.88;;;30.98;;
24084;SDS011;12268;52.110;5.548;2022-08-19T08:28:49;56.88;;;29.92;;
24084;SDS011;12268;52.110;5.548;2022-08-19T08:31:16;53.25;;;28.83;;
24084;SDS011;12268;52.110;5.548;2022-08-19T08:33:43;58.38;;;30.67;;
24084;SDS011;12268;52.110;5.548;2022-08-19T08:36:09;55.97;;;29.40;;
24084;SDS011;12268;52.110;5.548;2022-08-19T08:38:36;58.03;;;30.52;;
24084;SDS011;12268;52.110;5.548;2022-08-19T08:41:09;52.88;;;28.42;;
24084;SDS011;12268;52.110;5.548;2022-08-19T08:43:59;52.67;;;29.00;;
24084;SDS011;12268;52.110;5.548;2022-08-19T08:46:43;56.17;;;28.95;;
24084;SDS011;12268;52.110;5.548;2022-08-19T08:54:37;55.90;;;27.83;;
24084;SDS011;12268;52.110;5.548;2022-08-19T08:57:17;43.95;;;23.40;;
24084;SDS011;12268;52.110;5.548;2022-08-19T08:59:48;40.47;;;25.25;;
24084;SDS011;12268;52.110;5.548;2022-08-19T09:02:18;41.30;;;24.98;;
24084;SDS011;12268;52.110;5.548;2022-08-19T09:04:44;41.83;;;24.40;;
24084;SDS011;12268;52.110;5.548;2022-08-19T09:09:57;38.80;;;23.05;;
24084;SDS011;12268;52.110;5.548;2022-08-19T09:15:28;34.85;;;22.17;;
24084;SDS011;12268;52.110;5.548;2022-08-19T09:18:00;34.47;;;21.63;;
24084;SDS011;12268;52.110;5.548;2022-08-19T09:20:28;36.58;;;23.42;;
24084;SDS011;12268;52.110;5.548;2022-08-19T09:22:55;34.47;;;21.55;;
24084;SDS011;12268;52.110;5.548;2022-08-19T09:25:23;34.58;;;20.88;;
24084;SDS011;12268;52.110;5.548;2022-08-19T09:27:49;36.00;;;21.77;;
24084;SDS011;12268;52.110;5.548;2022-08-19T09:30:18;33.70;;;20.50;;
24084;SDS011;12268;52.110;5.548;2022-08-19T09:32:49;37.33;;;22.38;;
24084;SDS011;12268;52.110;5.548;2022-08-19T09:35:17;40.05;;;24.52;;
24084;SDS011;12268;52.110;5.548;2022-08-19T09:37:43;37.33;;;22.30;;
24084;SDS011;12268;52.110;5.548;2022-08-19T09:40:09;32.60;;;19.60;;
24084;SDS011;12268;52.110;5.548;2022-08-19T09:42:36;30.48;;;18.17;;
24084;SDS011;12268;52.110;5.548;2022-08-19T09:45:02;26.33;;;17.10;;
24084;SDS011;12268;52.110;5.548;2022-08-19T09:47:29;29.92;;;18.42;;
24084;SDS011;12268;52.110;5.548;2022-08-19T09:49:55;30.83;;;18.38;;
24084;SDS011;12268;52.110;5.548;2022-08-19T09:52:20;28.17;;;17.52;;
24084;SDS011;12268;52.110;5.548;2022-08-19T09:54:46;24.58;;;16.35;;
24084;SDS011;12268;52.110;5.548;2022-08-19T09:57:12;29.00;;;17.25;;
24084;SDS011;12268;52.110;5.548;2022-08-19T09:59:38;26.00;;;16.95;;
24084;SDS011;12268;52.110;5.548;2022-08-19T10:02:05;27.60;;;17.33;;
24084;SDS011;12268;52.110;5.548;2022-08-19T10:04:30;27.00;;;16.92;;
24084;SDS011;12268;52.110;5.548;2022-08-19T10:07:14;26.00;;;16.58;;
24084;SDS011;12268;52.110;5.548;2022-08-19T10:09:40;28.77;;;18.13;;
24084;SDS011;12268;52.110;5.548;2022-08-19T10:12:06;26.33;;;17.83;;
24084;SDS011;12268;52.110;5.548;2022-08-19T10:14:33;35.05;;;18.70;;
24084;SDS011;12268;52.110;5.548;2022-08-19T10:16:59;25.77;;;17.55;;
24084;SDS011;12268;52.110;5.548;2022-08-19T10:19:25;26.45;;;16.85;;
24084;SDS011;12268;52.110;5.548;2022-08-19T10:21:57;23.95;;;15.13;;
24084;SDS011;12268;52.110;5.548;2022-08-19T10:24:23;24.33;;;16.63;;
24084;SDS011;12268;52.110;5.548;2022-08-19T10:26:50;22.45;;;16.13;;
24084;SDS011;12268;52.110;5.548;2022-08-19T10:29:16;26.20;;;18.25;;
24084;SDS011;12268;52.110;5.548;2022-08-19T10:31:42;27.42;;;17.98;;
24084;SDS011;12268;52.110;5.548;2022-08-19T10:34:08;25.25;;;16.92;;
24084;SDS011;12268;52.110;5.548;2022-08-19T10:36:35;25.77;;;15.75;;
24084;SDS011;12268;52.110;5.548;2022-08-19T10:39:03;22.38;;;16.55;;
24084;SDS011;12268;52.110;5.548;2022-08-19T10:41:32;23.40;;;14.95;;
24084;SDS011;12268;52.110;5.548;2022-08-19T10:44:01;20.88;;;15.38;;
24084;SDS011;12268;52.110;5.548;2022-08-19T10:46:29;21.38;;;16.25;;
24084;SDS011;12268;52.110;5.548;2022-08-19T10:48:59;22.45;;;16.02;;
24084;SDS011;12268;52.110;5.548;2022-08-19T10:51:26;26.33;;;16.95;;
24084;SDS011;12268;52.110;5.548;2022-08-19T10:54:11;24.25;;;16.92;;
24084;SDS011;12268;52.110;5.548;2022-08-19T10:56:36;26.25;;;17.55;;
24084;SDS011;12268;52.110;5.548;2022-08-19T10:59:18;27.42;;;17.88;;
24084;SDS011;12268;52.110;5.548;2022-08-19T11:01:49;25.08;;;17.65;;
24084;SDS011;12268;52.110;5.548;2022-08-19T11:04:15;27.13;;;19.75;;
24084;SDS011;12268;52.110;5.548;2022-08-19T11:06:43;27.63;;;20.77;;
24084;SDS011;12268;52.110;5.548;2022-08-19T11:09:10;24.02;;;18.65;;
24084;SDS011;12268;52.110;5.548;2022-08-19T11:11:36;28.63;;;20.95;;
24084;SDS011;12268;52.110;5.548;2022-08-19T11:14:09;27.25;;;21.25;;
24084;SDS011;12268;52.110;5.548;2022-08-19T11:16:38;30.70;;;22.42;;
24084;SDS011;12268;52.110;5.548;2022-08-19T11:19:04;28.30;;;21.98;;
24084;SDS011;12268;52.110;5.548;2022-08-19T11:21:33;27.20;;;22.08;;
24084;SDS011;12268;52.110;5.548;2022-08-19T11:24:11;30.77;;;22.17;;
24084;SDS011;12268;52.110;5.548;2022-08-19T11:26:41;33.92;;;24.58;;
24084;SDS011;12268;52.110;5.548;2022-08-19T11:29:08;35.75;;;26.55;;
24084;SDS011;12268;52.110;5.548;2022-08-19T11:31:38;34.95;;;25.83;;
24084;SDS011;12268;52.110;5.548;2022-08-19T11:34:07;32.58;;;23.25;;
24084;SDS011;12268;52.110;5.548;2022-08-19T11:36:36;34.72;;;24.95;;
24084;SDS011;12268;52.110;5.548;2022-08-19T11:39:04;37.35;;;25.88;;
24084;SDS011;12268;52.110;5.548;2022-08-19T11:41:31;38.50;;;25.83;;
24084;SDS011;12268;52.110;5.548;2022-08-19T11:43:56;36.13;;;24.95;;
24084;SDS011;12268;52.110;5.548;2022-08-19T11:46:23;38.80;;;26.70;;
24084;SDS011;12268;52.110;5.548;2022-08-19T11:48:49;41.97;;;27.02;;
24084;SDS011;12268;52.110;5.548;2022-08-19T11:51:19;34.92;;;25.92;;
24084;SDS011;12268;52.110;5.548;2022-08-19T11:56:12;37.28;;;25.45;;
24084;SDS011;12268;52.110;5.548;2022-08-19T11:58:38;37.42;;;25.17;;
24084;SDS011;12268;52.110;5.548;2022-08-19T12:01:05;35.25;;;25.85;;
24084;SDS011;12268;52.110;5.548;2022-08-19T12:03:32;38.78;;;28.83;;
24084;SDS011;12268;52.110;5.548;2022-08-19T12:06:02;39.78;;;27.00;;
24084;SDS011;12268;52.110;5.548;2022-08-19T12:08:29;35.30;;;25.55;;
24084;SDS011;12268;52.110;5.548;2022-08-19T12:10:54;35.63;;;26.33;;
24084;SDS011;12268;52.110;5.548;2022-08-19T12:13:20;37.25;;;27.50;;
24084;SDS011;12268;52.110;5.548;2022-08-19T12:15:46;39.05;;;27.45;;
24084;SDS011;12268;52.110;5.548;2022-08-19T12:18:12;41.03;;;26.75;;
24084;SDS011;12268;52.110;5.548;2022-08-19T12:20:39;40.08;;;27.35;;
24084;SDS011;12268;52.110;5.548;2022-08-19T12:23:07;37.78;;;25.42;;
24084;SDS011;12268;52.110;5.548;2022-08-19T12:25:34;35.45;;;26.30;;
24084;SDS011;12268;52.110;5.548;2022-08-19T12:28:15;38.67;;;26.38;;
24084;SDS011;12268;52.110;5.548;2022-08-19T12:30:41;36.80;;;25.45;;
24084;SDS011;12268;52.110;5.548;2022-08-19T12:33:07;39.72;;;26.38;;
24084;SDS011;12268;52.110;5.548;2022-08-19T12:35:33;36.40;;;26.88;;
24084;SDS011;12268;52.110;5.548;2022-08-19T12:37:58;41.50;;;26.92;;
24084;SDS011;12268;52.110;5.548;2022-08-19T12:40:25;42.17;;;26.77;;
24084;SDS011;12268;52.110;5.548;2022-08-19T12:42:50;40.63;;;26.55;;
24084;SDS011;12268;52.110;5.548;2022-08-19T12:45:16;39.45;;;27.17;;
24084;SDS011;12268;52.110;5.548;2022-08-19T12:47:42;37.58;;;27.35;;
24084;SDS011;12268;52.110;5.548;2022-08-19T12:50:08;41.33;;;28.15;;
24084;SDS011;12268;52.110;5.548;2022-08-19T12:52:35;46.03;;;30.17;;
24084;SDS011;12268;52.110;5.548;2022-08-19T12:55:07;37.67;;;27.73;;
24084;SDS011;12268;52.110;5.548;2022-08-19T12:57:34;43.75;;;27.83;;
24084;SDS011;12268;52.110;5.548;2022-08-19T13:00:05;43.25;;;29.70;;
24084;SDS011;12268;52.110;5.548;2022-08-19T13:02:35;40.25;;;28.88;;
24084;SDS011;12268;52.110;5.548;2022-08-19T13:05:01;39.33;;;28.05;;
24084;SDS011;12268;52.110;5.548;2022-08-19T13:07:27;46.67;;;30.98;;
24084;SDS011;12268;52.110;5.548;2022-08-19T13:09:53;44.22;;;30.45;;
24084;SDS011;12268;52.110;5.548;2022-08-19T13:12:18;47.53;;;29.48;;
24084;SDS011;12268;52.110;5.548;2022-08-19T13:14:45;43.28;;;28.85;;
24084;SDS011;12268;52.110;5.548;2022-08-19T13:17:15;37.63;;;26.95;;
24084;SDS011;12268;52.110;5.548;2022-08-19T13:19:41;35.00;;;26.02;;
24084;SDS011;12268;52.110;5.548;2022-08-19T13:22:07;35.47;;;25.27;;
24084;SDS011;12268;52.110;5.548;2022-08-19T13:24:32;34.55;;;25.95;;
24084;SDS011;12268;52.110;5.548;2022-08-19T13:26:59;40.33;;;26.50;;
24084;SDS011;12268;52.110;5.548;2022-08-19T13:29:25;40.30;;;25.40;;
24084;SDS011;12268;52.110;5.548;2022-08-19T13:32:09;37.50;;;25.25;;
24084;SDS011;12268;52.110;5.548;2022-08-19T13:34:53;36.00;;;25.65;;
24084;SDS011;12268;52.110;5.548;2022-08-19T13:37:18;38.92;;;25.50;;
24084;SDS011;12268;52.110;5.548;2022-08-19T13:40:04;38.20;;;25.98;;
24084;SDS011;12268;52.110;5.548;2022-08-19T13:42:30;38.00;;;26.60;;
24084;SDS011;12268;52.110;5.548;2022-08-19T13:44:57;42.55;;;26.27;;
24084;SDS011;12268;52.110;5.548;2022-08-19T13:47:23;38.10;;;25.92;;
24084;SDS011;12268;52.110;5.548;2022-08-19T13:49:49;33.50;;;25.48;;
24084;SDS011;12268;52.110;5.548;2022-08-19T13:52:14;37.75;;;26.88;;
24084;SDS011;12268;52.110;5.548;2022-08-19T13:54:40;36.45;;;27.70;;
24084;SDS011;12268;52.110;5.548;2022-08-19T13:57:06;53.50;;;27.38;;
24084;SDS011;12268;52.110;5.548;2022-08-19T13:59:31;48.45;;;28.75;;
24084;SDS011;12268;52.110;5.548;2022-08-19T14:01:58;37.55;;;28.00;;
24084;SDS011;12268;52.110;5.548;2022-08-19T14:04:24;39.28;;;27.67;;
24084;SDS011;12268;52.110;5.548;2022-08-19T14:06:50;35.00;;;24.63;;
24084;SDS011;12268;52.110;5.548;2022-08-19T14:09:15;41.28;;;26.15;;
24084;SDS011;12268;52.110;5.548;2022-08-19T14:11:41;40.17;;;26.58;;
24084;SDS011;12268;52.110;5.548;2022-08-19T14:14:06;48.05;;;29.67;;
24084;SDS011;12268;52.110;5.548;2022-08-19T14:16:32;40.85;;;25.45;;
24084;SDS011;12268;52.110;5.548;2022-08-19T14:18:58;32.45;;;22.30;;
24084;SDS011;12268;52.110;5.548;2022-08-19T14:21:24;23.42;;;14.93;;
24084;SDS011;12268;52.110;5.548;2022-08-19T14:23:50;21.50;;;13.30;;
24084;SDS011;12268;52.110;5.548;2022-08-19T14:26:17;20.00;;;13.45;;
24084;SDS011;12268;52.110;5.548;2022-08-19T14:28:44;14.10;;;10.85;;
24084;SDS011;12268;52.110;5.548;2022-08-19T14:31:14;12.73;;;10.02;;
24084;SDS011;12268;52.110;5.548;2022-08-19T14:33:44;12.40;;;9.68;;
24084;SDS011;12268;52.110;5.548;2022-08-19T14:36:11;14.75;;;10.55;;
24084;SDS011;12268;52.110;5.548;2022-08-19T14:38:37;17.73;;;12.02;;
24084;SDS011;12268;52.110;5.548;2022-08-19T14:41:16;18.95;;;14.18;;
24084;SDS011;12268;52.110;5.548;2022-08-19T14:43:45;26.23;;;16.58;;
24084;SDS011;12268;52.110;5.548;2022-08-19T14:46:15;28.75;;;18.58;;
24084;SDS011;12268;52.110;5.548;2022-08-19T14:48:42;30.17;;;19.60;;
24084;SDS011;12268;52.110;5.548;2022-08-19T14:51:08;31.27;;;18.88;;
24084;SDS011;12268;52.110;5.548;2022-08-19T14:53:34;30.33;;;19.60;;